Time;durP1;ratioP1;P1;durP2;ratioP2;P2;SDS_P1;SDS_P2;PMS_P1;PMS_P2;Temp;Humidity;BMP_temperature;BMP_pressure;BME280_temperature;BME280_humidity;BME280_pressure;Samples;Min_cycle;Max_cycle;Signal;HPM_P1;HPM_P2
2023/10/21 00:00:05;;;;;;;4.03;1.70;;;;;;;;;;684938;28;1020;-66
2023/10/21 00:00:32;;;;;;;3.60;1.75;;;;;;;;;;682837;28;33698;-66
2023/10/21 00:00:53;;;;;;;4.22;1.77;;;;;;;;;;684499;28;4832;-66
2023/10/21 00:01:13;;;;;;;3.90;1.70;;;;;;;;;;684637;28;1917;-66
2023/10/21 00:01:34;;;;;;;4.20;1.80;;;;;;;;;;687442;28;884;-66
2023/10/21 00:01:55;;;;;;;3.83;1.80;;;;;;;;;;688058;28;904;-66
2023/10/21 00:02:16;;;;;;;4.30;2.17;;;;;;;;;;686479;28;2874;-66
2023/10/21 00:02:36;;;;;;;4.97;2.08;;;;;;;;;;687724;28;837;-66
2023/10/21 00:02:57;;;;;;;3.97;1.80;;;;;;;;;;687658;28;1426;-66
2023/10/21 00:03:18;;;;;;;3.67;1.90;;;;;;;;;;686342;28;903;-65
2023/10/21 00:03:38;;;;;;;3.80;1.70;;;;;;;;;;685226;28;940;-66
2023/10/21 00:03:59;;;;;;;3.10;1.60;;;;;;;;;;684610;28;4467;-66
2023/10/21 00:04:21;;;;;;;3.50;1.70;;;;;;;;;;682385;28;1965;-66
2023/10/21 00:04:43;;;;;;;3.78;1.70;;;;;;;;;;684469;28;1446;-65
2023/10/21 00:05:04;;;;;;;5.32;1.80;;;;;;;;;;684746;28;917;-66
2023/10/21 00:05:25;;;;;;;3.90;1.70;;;;;;;;;;684351;28;1780;-67
2023/10/21 00:05:46;;;;;;;3.42;1.73;;;;;;;;;;688296;28;985;-65
2023/10/21 00:06:06;;;;;;;3.65;1.65;;;;;;;;;;687559;28;1411;-66
2023/10/21 00:06:27;;;;;;;2.85;1.70;;;;;;;;;;686080;28;1929;-66
2023/10/21 00:06:47;;;;;;;3.00;1.60;;;;;;;;;;687392;28;4610;-65
2023/10/21 00:07:07;;;;;;;4.60;1.60;;;;;;;;;;688102;28;1330;-65
2023/10/21 00:07:28;;;;;;;4.03;1.67;;;;;;;;;;686037;28;2423;-65
2023/10/21 00:07:48;;;;;;;3.33;1.50;;;;;;;;;;684904;28;1478;-65
2023/10/21 00:08:08;;;;;;;3.00;1.60;;;;;;;;;;685330;28;1004;-66
2023/10/21 00:08:28;;;;;;;3.30;1.70;;;;;;;;;;683785;28;2154;-66
2023/10/21 00:08:49;;;;;;;4.10;1.70;;;;;;;;;;684300;28;1275;-66
2023/10/21 00:09:09;;;;;;;3.63;1.70;;;;;;;;;;685304;28;912;-66
2023/10/21 00:09:29;;;;;;;3.05;1.70;;;;;;;;;;683481;28;2527;-66
2023/10/21 00:09:50;;;;;;;3.47;1.80;;;;;;;;;;687114;28;4492;-65
2023/10/21 00:10:10;;;;;;;3.07;1.70;;;;;;;;;;688119;28;918;-66
2023/10/21 00:10:30;;;;;;;3.95;1.70;;;;;;;;;;686458;28;1086;-66
2023/10/21 00:11:00;;;;;;;4.37;1.70;;;;;;;;;;687694;28;829;-66
2023/10/21 00:11:20;;;;;;;3.50;1.50;;;;;;;;;;684037;28;68669;-66
2023/10/21 00:11:41;;;;;;;3.43;1.50;;;;;;;;;;687583;28;896;-67
2023/10/21 00:12:01;;;;;;;2.78;1.63;;;;;;;;;;687857;28;1611;-66
2023/10/21 00:12:21;;;;;;;2.60;1.50;;;;;;;;;;686715;28;1770;-66
2023/10/21 00:12:43;;;;;;;3.80;2.10;;;;;;;;;;684211;28;4923;-66
2023/10/21 00:13:03;;;;;;;3.80;2.13;;;;;;;;;;683490;28;1428;-66
2023/10/21 00:13:24;;;;;;;3.28;1.60;;;;;;;;;;683820;28;1889;-66
2023/10/21 00:13:44;;;;;;;3.00;1.40;;;;;;;;;;682185;29;996;-67
2023/10/21 00:14:04;;;;;;;2.80;1.40;;;;;;;;;;682336;28;1001;-64
2023/10/21 00:14:25;;;;;;;2.65;1.42;;;;;;;;;;681232;28;2522;-65
2023/10/21 00:14:45;;;;;;;2.73;1.60;;;;;;;;;;684925;28;1238;-65
2023/10/21 00:15:06;;;;;;;3.10;1.60;;;;;;;;;;684625;28;1291;-65
2023/10/21 00:15:27;;;;;;;2.80;1.50;;;;;;;;;;683945;28;1751;-65
2023/10/21 00:15:47;;;;;;;3.57;1.50;;;;;;;;;;684094;28;4489;-65
2023/10/21 00:16:07;;;;;;;3.37;1.47;;;;;;;;;;685388;28;888;-65
2023/10/21 00:16:28;;;;;;;3.00;1.50;;;;;;;;;;683676;28;3312;-65
2023/10/21 00:16:52;;;;;;;3.27;1.60;;;;;;;;;;685026;28;1426;-65
2023/10/21 00:17:12;;;;;;;3.03;1.50;;;;;;;;;;682453;28;23085;-64
2023/10/21 00:17:32;;;;;;;3.38;1.48;;;;;;;;;;685445;28;944;-65
2023/10/21 00:17:53;;;;;;;2.73;1.40;;;;;;;;;;684870;28;1756;-65
2023/10/21 00:18:13;;;;;;;2.97;1.48;;;;;;;;;;683775;28;1517;-66
2023/10/21 00:18:33;;;;;;;4.07;1.60;;;;;;;;;;685030;28;837;-65
2023/10/21 00:18:54;;;;;;;3.90;1.70;;;;;;;;;;684247;28;4468;-65
2023/10/21 00:19:14;;;;;;;2.93;1.50;;;;;;;;;;686248;28;2611;-65
2023/10/21 00:19:34;;;;;;;2.58;1.50;;;;;;;;;;688226;28;1194;-66
2023/10/21 00:19:54;;;;;;;2.47;1.40;;;;;;;;;;687534;28;1338;-65
2023/10/21 00:20:15;;;;;;;2.70;1.40;;;;;;;;;;685890;28;1884;-65
2023/10/21 00:20:35;;;;;;;2.28;1.48;;;;;;;;;;688016;28;897;-65
2023/10/21 00:20:55;;;;;;;2.07;1.40;;;;;;;;;;687978;28;928;-65
2023/10/21 00:21:15;;;;;;;2.53;1.43;;;;;;;;;;685941;28;2713;-65
2023/10/21 00:21:36;;;;;;;2.97;1.40;;;;;;;;;;687652;28;1718;-64
2023/10/21 00:21:56;;;;;;;3.07;1.70;;;;;;;;;;687442;28;4665;-64
2023/10/21 00:22:17;;;;;;;3.40;1.80;;;;;;;;;;686223;28;1736;-65
2023/10/21 00:22:37;;;;;;;3.03;1.60;;;;;;;;;;688087;28;921;-65
2023/10/21 00:22:57;;;;;;;3.73;1.60;;;;;;;;;;687840;28;884;-66
2023/10/21 00:23:17;;;;;;;2.80;1.50;;;;;;;;;;685577;28;2685;-64
2023/10/21 00:23:38;;;;;;;3.53;1.60;;;;;;;;;;685239;28;1048;-66
2023/10/21 00:23:58;;;;;;;4.20;1.63;;;;;;;;;;685204;28;948;-65
2023/10/21 00:24:18;;;;;;;3.13;1.60;;;;;;;;;;683151;28;2297;-65
2023/10/21 00:24:39;;;;;;;2.80;1.40;;;;;;;;;;685341;28;1315;-65
2023/10/21 00:25:00;;;;;;;2.80;1.40;;;;;;;;;;681995;29;4595;-65
2023/10/21 00:25:20;;;;;;;2.95;1.52;;;;;;;;;;680547;28;1620;-65
2023/10/21 00:25:40;;;;;;;3.08;1.58;;;;;;;;;;685206;28;798;-65
2023/10/21 00:26:01;;;;;;;3.70;1.60;;;;;;;;;;685219;28;829;-64
2023/10/21 00:26:22;;;;;;;3.80;1.60;;;;;;;;;;680782;29;1480;-65
2023/10/21 00:26:47;;;;;;;3.05;1.58;;;;;;;;;;680869;29;46545;-65
2023/10/21 00:27:07;;;;;;;3.17;1.40;;;;;;;;;;682224;29;1256;-65
2023/10/21 00:27:28;;;;;;;2.30;1.50;;;;;;;;;;680702;29;1106;-65
2023/10/21 00:27:48;;;;;;;3.20;1.50;;;;;;;;;;679130;29;4481;-65
2023/10/21 00:28:10;;;;;;;2.17;1.30;;;;;;;;;;681187;28;1434;-65
2023/10/21 00:28:30;;;;;;;2.28;1.40;;;;;;;;;;682825;28;2280;-66
2023/10/21 00:28:51;;;;;;;3.27;1.40;;;;;;;;;;684756;28;984;-66
2023/10/21 00:29:11;;;;;;;3.33;1.50;;;;;;;;;;682362;29;1210;-65
2023/10/21 00:29:33;;;;;;;3.40;1.30;;;;;;;;;;680743;28;1569;-65
2023/10/21 00:29:53;;;;;;;3.83;1.40;;;;;;;;;;681885;28;999;-65
2023/10/21 00:30:14;;;;;;;3.70;1.50;;;;;;;;;;681014;28;1576;-65
2023/10/21 00:30:37;;;;;;;3.43;1.50;;;;;;;;;;681901;29;1005;-65
2023/10/21 00:30:57;;;;;;;3.08;1.40;;;;;;;;;;682525;28;4617;-66
2023/10/21 00:31:17;;;;;;;2.80;1.40;;;;;;;;;;680579;29;2103;-65
2023/10/21 00:31:37;;;;;;;3.13;1.47;;;;;;;;;;682206;28;958;-66
2023/10/21 00:31:58;;;;;;;3.97;1.53;;;;;;;;;;685219;28;843;-65
2023/10/21 00:32:18;;;;;;;4.67;1.50;;;;;;;;;;680728;28;1885;-65
2023/10/21 00:32:38;;;;;;;3.30;1.60;;;;;;;;;;680890;29;1004;-65
2023/10/21 00:32:59;;;;;;;3.00;1.50;;;;;;;;;;682491;29;1427;-65
2023/10/21 00:33:19;;;;;;;3.27;1.50;;;;;;;;;;683439;28;2356;-65
2023/10/21 00:33:39;;;;;;;3.97;1.70;;;;;;;;;;681899;29;1575;-65
2023/10/21 00:34:00;;;;;;;4.33;2.00;;;;;;;;;;681761;28;4605;-66
2023/10/21 00:34:20;;;;;;;2.60;1.47;;;;;;;;;;683867;28;2722;-65
2023/10/21 00:34:41;;;;;;;2.50;1.35;;;;;;;;;;682087;29;1619;-65
2023/10/21 00:35:01;;;;;;;2.30;1.30;;;;;;;;;;682421;29;3291;-65
2023/10/21 00:35:22;;;;;;;3.22;1.50;;;;;;;;;;678452;29;1984;-64
2023/10/21 00:35:43;;;;;;;3.35;1.60;;;;;;;;;;682047;28;1338;-66
2023/10/21 00:36:04;;;;;;;2.90;1.60;;;;;;;;;;682015;29;905;-65
2023/10/21 00:36:24;;;;;;;3.08;1.60;;;;;;;;;;677511;29;988;-65
2023/10/21 00:36:45;;;;;;;3.10;1.50;;;;;;;;;;678960;29;4484;-65
2023/10/21 00:37:07;;;;;;;3.08;1.33;;;;;;;;;;677376;29;1179;-64
2023/10/21 00:37:27;;;;;;;6.50;1.50;;;;;;;;;;676354;29;2649;-64
2023/10/21 00:37:48;;;;;;;6.37;1.60;;;;;;;;;;679695;29;829;-65
2023/10/21 00:38:09;;;;;;;3.42;1.40;;;;;;;;;;679754;29;1356;-65
2023/10/21 00:38:30;;;;;;;3.43;1.50;;;;;;;;;;677066;29;1801;-66
2023/10/21 00:38:50;;;;;;;3.63;1.40;;;;;;;;;;679095;29;5543;-65
2023/10/21 00:39:10;;;;;;;3.30;1.50;;;;;;;;;;682250;28;1112;-65
2023/10/21 00:39:34;;;;;;;4.15;1.50;;;;;;;;;;683730;28;1900;-64
2023/10/21 00:39:54;;;;;;;3.10;1.48;;;;;;;;;;682699;28;4410;-64
2023/10/21 00:40:15;;;;;;;3.30;1.70;;;;;;;;;;681740;28;3324;-64
2023/10/21 00:40:35;;;;;;;2.43;1.60;;;;;;;;;;682550;28;1178;-64
2023/10/21 00:40:56;;;;;;;3.27;1.40;;;;;;;;;;681262;29;1438;-64
2023/10/21 00:41:16;;;;;;;3.35;1.50;;;;;;;;;;678427;28;3453;-64
2023/10/21 00:41:38;;;;;;;2.83;1.53;;;;;;;;;;680410;29;1235;-63
2023/10/21 00:41:58;;;;;;;3.50;1.50;;;;;;;;;;681181;28;806;-64
2023/10/21 00:42:18;;;;;;;4.37;1.50;;;;;;;;;;680888;28;1792;-64
2023/10/21 00:42:38;;;;;;;4.50;1.40;;;;;;;;;;685016;28;805;-64
2023/10/21 00:42:59;;;;;;;4.93;1.60;;;;;;;;;;682140;28;4608;-64
2023/10/21 00:43:35;;;;;;;4.03;1.60;;;;;;;;;;680761;29;2418;-64
2023/10/21 00:43:55;;;;;;;3.05;1.50;;;;;;;;;;679929;29;71268;-65
2023/10/21 00:44:16;;;;;;;3.70;1.50;;;;;;;;;;679756;29;1968;-64
2023/10/21 00:44:36;;;;;;;2.70;1.40;;;;;;;;;;682649;29;937;-64
2023/10/21 00:44:57;;;;;;;3.40;1.40;;;;;;;;;;680642;29;1305;-64
2023/10/21 00:45:18;;;;;;;3.60;1.60;;;;;;;;;;680911;29;1050;-64
2023/10/21 00:45:38;;;;;;;3.07;1.60;;;;;;;;;;680283;29;889;-65
2023/10/21 00:46:02;;;;;;;2.67;1.55;;;;;;;;;;681962;28;4621;-65
2023/10/21 00:46:26;;;;;;;2.17;1.40;;;;;;;;;;682890;28;2138;-64
2023/10/21 00:46:47;;;;;;;2.63;1.30;;;;;;;;;;683755;28;23365;-64
2023/10/21 00:47:07;;;;;;;2.90;1.40;;;;;;;;;;682257;29;1439;-64
2023/10/21 00:47:27;;;;;;;2.73;1.50;;;;;;;;;;680601;28;1593;-64
2023/10/21 00:47:48;;;;;;;3.15;1.60;;;;;;;;;;680585;29;945;-64
2023/10/21 00:48:08;;;;;;;3.10;1.40;;;;;;;;;;677637;29;1739;-64
2023/10/21 00:48:28;;;;;;;4.17;1.47;;;;;;;;;;674879;29;1235;-64
2023/10/21 00:48:49;;;;;;;3.22;1.50;;;;;;;;;;678820;29;4385;-64
2023/10/21 00:49:09;;;;;;;2.60;1.40;;;;;;;;;;679784;29;1324;-65
2023/10/21 00:49:30;;;;;;;2.50;1.40;;;;;;;;;;674678;29;2552;-65
2023/10/21 00:49:52;;;;;;;3.17;1.40;;;;;;;;;;681333;29;949;-64
2023/10/21 00:50:12;;;;;;;3.30;1.63;;;;;;;;;;679802;29;997;-64
2023/10/21 00:50:32;;;;;;;2.67;1.50;;;;;;;;;;678022;29;1609;-64
2023/10/21 00:50:53;;;;;;;2.90;1.50;;;;;;;;;;681235;29;1175;-64
2023/10/21 00:51:15;;;;;;;3.33;1.60;;;;;;;;;;680107;29;1465;-64
2023/10/21 00:51:36;;;;;;;2.95;1.63;;;;;;;;;;681706;29;1332;-64
2023/10/21 00:51:57;;;;;;;2.95;1.60;;;;;;;;;;680857;28;4456;-65
2023/10/21 00:52:18;;;;;;;2.78;1.50;;;;;;;;;;680608;28;1520;-65
2023/10/21 00:52:44;;;;;;;2.80;1.60;;;;;;;;;;682548;28;1158;-65
2023/10/21 00:53:04;;;;;;;3.50;1.60;;;;;;;;;;684604;28;47119;-64
2023/10/21 00:53:24;;;;;;;3.50;1.65;;;;;;;;;;683492;28;1575;-65
2023/10/21 00:53:45;;;;;;;3.63;1.70;;;;;;;;;;679843;29;1303;-65
2023/10/21 00:54:07;;;;;;;3.13;1.77;;;;;;;;;;680445;29;1311;-64
2023/10/21 00:54:27;;;;;;;3.60;1.60;;;;;;;;;;677556;29;1296;-64
2023/10/21 00:54:47;;;;;;;4.37;1.67;;;;;;;;;;678495;29;5092;-65
2023/10/21 00:55:09;;;;;;;3.40;1.60;;;;;;;;;;677711;29;945;-64
2023/10/21 00:55:29;;;;;;;2.38;1.60;;;;;;;;;;678900;29;1114;-64
2023/10/21 00:55:50;;;;;;;3.17;1.60;;;;;;;;;;679044;29;1453;-64
2023/10/21 00:56:10;;;;;;;2.75;1.60;;;;;;;;;;676842;29;1457;-65
2023/10/21 00:56:31;;;;;;;4.20;1.58;;;;;;;;;;677592;29;2759;-65
2023/10/21 00:56:51;;;;;;;4.20;1.30;;;;;;;;;;679544;29;1279;-65
2023/10/21 00:57:11;;;;;;;3.13;1.50;;;;;;;;;;682502;29;929;-65
2023/10/21 00:57:31;;;;;;;3.80;1.60;;;;;;;;;;681128;28;1784;-65
2023/10/21 00:57:52;;;;;;;4.03;1.50;;;;;;;;;;683983;28;4654;-65
2023/10/21 00:58:13;;;;;;;3.00;1.57;;;;;;;;;;684936;28;1347;-64
2023/10/21 00:58:34;;;;;;;2.90;1.50;;;;;;;;;;684242;28;1868;-63
2023/10/21 00:58:55;;;;;;;3.35;1.52;;;;;;;;;;683834;28;1256;-64
2023/10/21 00:59:17;;;;;;;3.92;1.65;;;;;;;;;;683430;28;1763;-64
2023/10/21 00:59:40;;;;;;;4.60;1.80;;;;;;;;;;681605;29;1190;-63
2023/10/21 01:00:00;;;;;;;2.88;1.50;;;;;;;;;;680251;29;2243;-64
2023/10/21 01:00:20;;;;;;;2.70;1.38;;;;;;;;;;680918;28;2820;-64
2023/10/21 01:00:41;;;;;;;2.60;1.73;;;;;;;;;;681709;29;5349;-64
2023/10/21 01:01:02;;;;;;;3.33;1.55;;;;;;;;;;682004;29;1019;-64
2023/10/21 01:01:22;;;;;;;4.57;1.60;;;;;;;;;;679086;29;2332;-64
2023/10/21 01:01:43;;;;;;;4.20;1.60;;;;;;;;;;682399;28;1407;-64
2023/10/21 01:02:04;;;;;;;4.22;1.70;;;;;;;;;;682103;29;1344;-64
2023/10/21 01:02:24;;;;;;;3.10;1.60;;;;;;;;;;681086;29;1774;-64
2023/10/21 01:02:46;;;;;;;3.40;1.60;;;;;;;;;;682166;28;1299;-64
2023/10/21 01:03:06;;;;;;;3.10;1.60;;;;;;;;;;681754;29;1420;-64
2023/10/21 01:03:28;;;;;;;2.80;1.60;;;;;;;;;;681023;28;1863;-65
2023/10/21 01:03:49;;;;;;;3.50;1.60;;;;;;;;;;682245;28;4465;-64
2023/10/21 01:04:10;;;;;;;3.45;1.58;;;;;;;;;;684714;28;925;-64
2023/10/21 01:04:30;;;;;;;3.03;1.63;;;;;;;;;;683452;28;2616;-64
2023/10/21 01:04:51;;;;;;;3.42;1.73;;;;;;;;;;682632;28;1435;-64
2023/10/21 01:05:13;;;;;;;2.90;1.60;;;;;;;;;;684625;28;1163;-64
2023/10/21 01:05:33;;;;;;;2.75;1.52;;;;;;;;;;683789;28;2717;-64
2023/10/21 01:05:53;;;;;;;3.57;1.60;;;;;;;;;;684763;28;959;-64
2023/10/21 01:06:14;;;;;;;3.47;1.67;;;;;;;;;;684727;28;956;-64
2023/10/21 01:06:35;;;;;;;3.05;1.60;;;;;;;;;;685170;28;830;-64
2023/10/21 01:06:55;;;;;;;3.30;1.60;;;;;;;;;;687227;28;4631;-64
2023/10/21 01:07:16;;;;;;;2.80;1.55;;;;;;;;;;685822;28;1724;-65
2023/10/21 01:07:41;;;;;;;3.08;1.45;;;;;;;;;;687989;28;861;-64
2023/10/21 01:08:02;;;;;;;3.13;1.60;;;;;;;;;;683308;28;45761;-65
2023/10/21 01:08:22;;;;;;;2.53;1.63;;;;;;;;;;683258;28;1771;-65
2023/10/21 01:08:43;;;;;;;3.37;1.67;;;;;;;;;;684844;28;905;-65
2023/10/21 01:09:03;;;;;;;2.70;1.60;;;;;;;;;;681877;28;1577;-65
2023/10/21 01:09:24;;;;;;;3.03;1.50;;;;;;;;;;680765;29;1615;-65
2023/10/21 01:09:44;;;;;;;3.63;1.73;;;;;;;;;;681996;28;4642;-65
2023/10/21 01:10:04;;;;;;;4.43;1.70;;;;;;;;;;684740;28;949;-65
2023/10/21 01:10:25;;;;;;;2.37;1.43;;;;;;;;;;683828;28;2389;-65
2023/10/21 01:10:46;;;;;;;4.50;1.65;;;;;;;;;;682109;29;1264;-65
2023/10/21 01:11:06;;;;;;;6.53;2.40;;;;;;;;;;682578;28;897;-65
2023/10/21 01:11:26;;;;;;;5.37;2.50;;;;;;;;;;682603;28;1934;-66
2023/10/21 01:11:46;;;;;;;2.83;1.60;;;;;;;;;;684572;28;1278;-65
2023/10/21 01:12:07;;;;;;;2.85;1.45;;;;;;;;;;682456;29;1208;-66
2023/10/21 01:12:27;;;;;;;3.43;1.53;;;;;;;;;;678666;29;1211;-66
2023/10/21 01:12:47;;;;;;;3.47;1.57;;;;;;;;;;678128;29;4529;-65
2023/10/21 01:13:08;;;;;;;3.10;1.80;;;;;;;;;;679662;29;1363;-66
2023/10/21 01:13:28;;;;;;;3.23;1.63;;;;;;;;;;675740;29;2368;-66
2023/10/21 01:13:50;;;;;;;4.90;1.60;;;;;;;;;;676932;29;965;-66
2023/10/21 01:14:11;;;;;;;3.38;1.40;;;;;;;;;;679398;29;1063;-66
2023/10/21 01:14:31;;;;;;;2.70;1.50;;;;;;;;;;675978;29;1881;-66
2023/10/21 01:14:52;;;;;;;2.55;1.40;;;;;;;;;;679302;29;1006;-66
2023/10/21 01:15:13;;;;;;;2.45;1.40;;;;;;;;;;679866;29;1068;-66
2023/10/21 01:15:33;;;;;;;3.42;1.60;;;;;;;;;;678056;29;1499;-66
2023/10/21 01:15:55;;;;;;;3.30;1.47;;;;;;;;;;676603;29;4512;-66
2023/10/21 01:16:16;;;;;;;3.63;1.60;;;;;;;;;;678484;28;1946;-66
2023/10/21 01:16:36;;;;;;;2.60;1.70;;;;;;;;;;683347;28;858;-66
2023/10/21 01:16:56;;;;;;;3.40;1.50;;;;;;;;;;679077;29;1398;-66
2023/10/21 01:17:17;;;;;;;3.40;1.50;;;;;;;;;;678739;28;1925;-66
2023/10/21 01:17:37;;;;;;;3.60;1.80;;;;;;;;;;682447;28;937;-67
2023/10/21 01:17:57;;;;;;;3.20;1.70;;;;;;;;;;682018;28;1351;-67
2023/10/21 01:18:18;;;;;;;4.53;1.70;;;;;;;;;;680877;29;2699;-66
2023/10/21 01:18:38;;;;;;;3.25;1.60;;;;;;;;;;682395;28;941;-66
2023/10/21 01:18:58;;;;;;;4.10;1.50;;;;;;;;;;676112;29;4536;-66
2023/10/21 01:19:19;;;;;;;3.77;1.50;;;;;;;;;;677087;29;2364;-66
2023/10/21 01:19:39;;;;;;;2.70;1.50;;;;;;;;;;675339;29;1368;-66
2023/10/21 01:19:59;;;;;;;2.83;1.57;;;;;;;;;;677619;29;948;-66
2023/10/21 01:20:20;;;;;;;3.55;1.55;;;;;;;;;;677204;29;2047;-66
2023/10/21 01:20:41;;;;;;;3.93;1.60;;;;;;;;;;676265;29;1159;-66
2023/10/21 01:21:02;;;;;;;3.38;1.50;;;;;;;;;;681687;29;948;-66
2023/10/21 01:21:23;;;;;;;2.55;1.50;;;;;;;;;;678376;29;1801;-67
2023/10/21 01:21:43;;;;;;;3.60;1.60;;;;;;;;;;678908;29;4636;-67
2023/10/21 01:22:03;;;;;;;3.47;1.50;;;;;;;;;;676532;29;1210;-67
2023/10/21 01:22:24;;;;;;;3.25;1.52;;;;;;;;;;673520;29;2431;-67
2023/10/21 01:22:44;;;;;;;4.50;1.70;;;;;;;;;;676939;29;837;-67
2023/10/21 01:23:04;;;;;;;4.33;1.67;;;;;;;;;;676534;29;1337;-67
2023/10/21 01:23:25;;;;;;;3.72;1.70;;;;;;;;;;675771;29;1591;-67
2023/10/21 01:23:46;;;;;;;8.23;2.17;;;;;;;;;;679431;29;1262;-67
2023/10/21 01:24:06;;;;;;;2.77;1.50;;;;;;;;;;682323;28;873;-67
2023/10/21 01:24:27;;;;;;;2.77;1.63;;;;;;;;;;680850;28;1976;-68
2023/10/21 01:24:47;;;;;;;2.47;1.50;;;;;;;;;;682126;28;4668;-68
2023/10/21 01:25:07;;;;;;;2.33;1.52;;;;;;;;;;682084;29;1186;-67
2023/10/21 01:25:28;;;;;;;2.80;1.70;;;;;;;;;;680559;29;2754;-68
2023/10/21 01:25:48;;;;;;;3.03;1.55;;;;;;;;;;682112;29;928;-68
2023/10/21 01:26:09;;;;;;;4.70;1.50;;;;;;;;;;682528;28;1085;-68
2023/10/21 01:26:29;;;;;;;3.00;1.40;;;;;;;;;;680826;29;1601;-68
2023/10/21 01:26:49;;;;;;;4.00;1.70;;;;;;;;;;682197;29;945;-68
2023/10/21 01:27:09;;;;;;;5.10;1.73;;;;;;;;;;679662;29;1307;-68
2023/10/21 01:27:30;;;;;;;3.27;1.50;;;;;;;;;;680696;29;1650;-68
2023/10/21 01:27:54;;;;;;;3.67;1.70;;;;;;;;;;681488;28;4856;-68
2023/10/21 01:28:14;;;;;;;4.10;1.60;;;;;;;;;;684489;28;24591;-69
2023/10/21 01:28:34;;;;;;;3.90;1.50;;;;;;;;;;683255;28;2352;-68
2023/10/21 01:28:55;;;;;;;3.40;1.60;;;;;;;;;;684449;28;1654;-68
2023/10/21 01:29:15;;;;;;;2.92;1.65;;;;;;;;;;681450;29;928;-69
2023/10/21 01:29:37;;;;;;;2.57;1.53;;;;;;;;;;680612;28;1449;-68
2023/10/21 01:29:57;;;;;;;3.83;1.50;;;;;;;;;;679138;29;1434;-69
2023/10/21 01:30:18;;;;;;;3.40;1.70;;;;;;;;;;676454;29;2035;-70
2023/10/21 01:30:38;;;;;;;3.30;1.50;;;;;;;;;;678682;29;1024;-70
2023/10/21 01:30:58;;;;;;;3.43;1.60;;;;;;;;;;680023;28;4471;-69
2023/10/21 01:31:19;;;;;;;2.67;1.42;;;;;;;;;;680468;28;1989;-70
2023/10/21 01:31:39;;;;;;;3.90;1.40;;;;;;;;;;681899;29;1200;-70
2023/10/21 01:32:00;;;;;;;3.73;1.60;;;;;;;;;;682407;28;901;-71
2023/10/21 01:32:20;;;;;;;3.60;1.50;;;;;;;;;;682924;28;2725;-70
2023/10/21 01:32:40;;;;;;;2.93;1.47;;;;;;;;;;681293;29;1419;-71
2023/10/21 01:33:00;;;;;;;3.55;1.60;;;;;;;;;;682447;29;921;-70
2023/10/21 01:33:21;;;;;;;2.40;1.50;;;;;;;;;;681070;28;1544;-71
2023/10/21 01:33:41;;;;;;;3.15;1.50;;;;;;;;;;681326;29;4410;-70
2023/10/21 01:34:02;;;;;;;3.63;1.50;;;;;;;;;;679446;29;1344;-71
2023/10/21 01:34:22;;;;;;;3.58;1.50;;;;;;;;;;677903;29;1781;-71
2023/10/21 01:34:42;;;;;;;2.93;1.50;;;;;;;;;;682218;29;853;-72
2023/10/21 01:35:03;;;;;;;3.90;1.60;;;;;;;;;;679502;29;1418;-70
2023/10/21 01:35:23;;;;;;;3.05;1.52;;;;;;;;;;675880;29;1385;-71
2023/10/21 01:35:46;;;;;;;2.77;1.43;;;;;;;;;;679277;29;1320;-71
2023/10/21 01:36:06;;;;;;;4.00;1.50;;;;;;;;;;682008;29;902;-71
2023/10/21 01:36:27;;;;;;;5.23;1.67;;;;;;;;;;677805;29;1758;-70
2023/10/21 01:36:47;;;;;;;3.40;1.52;;;;;;;;;;679397;29;5232;-70
2023/10/21 01:37:08;;;;;;;3.63;1.50;;;;;;;;;;680015;29;1202;-70
2023/10/21 01:37:28;;;;;;;4.07;1.60;;;;;;;;;;680886;29;2410;-72
2023/10/21 01:37:49;;;;;;;4.38;1.52;;;;;;;;;;679125;29;1519;-70
2023/10/21 01:38:10;;;;;;;3.35;1.50;;;;;;;;;;679839;29;903;-71
2023/10/21 01:38:31;;;;;;;2.90;1.60;;;;;;;;;;680770;29;2356;-70
2023/10/21 01:38:51;;;;;;;3.00;1.60;;;;;;;;;;681700;28;5582;-71
2023/10/21 01:39:11;;;;;;;2.63;1.40;;;;;;;;;;684670;28;1379;-69
2023/10/21 01:39:32;;;;;;;2.38;1.48;;;;;;;;;;681080;28;1352;-70
2023/10/21 01:39:52;;;;;;;2.83;1.40;;;;;;;;;;684416;28;4484;-70
2023/10/21 01:40:12;;;;;;;3.00;1.70;;;;;;;;;;682138;29;1225;-72
2023/10/21 01:40:33;;;;;;;4.03;1.80;;;;;;;;;;678761;29;1828;-70
2023/10/21 01:40:53;;;;;;;3.53;1.50;;;;;;;;;;680912;29;1336;-71
2023/10/21 01:41:13;;;;;;;3.10;1.50;;;;;;;;;;678634;29;1569;-71
2023/10/21 01:41:34;;;;;;;3.50;1.50;;;;;;;;;;678511;29;2455;-69
2023/10/21 01:41:54;;;;;;;3.37;1.57;;;;;;;;;;678114;29;969;-71
2023/10/21 01:42:14;;;;;;;2.95;1.60;;;;;;;;;;679602;29;984;-70
2023/10/21 01:42:34;;;;;;;3.43;1.57;;;;;;;;;;677688;29;1871;-71
2023/10/21 01:42:55;;;;;;;4.60;1.70;;;;;;;;;;677929;29;4656;-71
2023/10/21 01:43:15;;;;;;;4.33;1.50;;;;;;;;;;679845;29;1633;-71
2023/10/21 01:43:35;;;;;;;3.10;1.50;;;;;;;;;;680901;29;1682;-69
2023/10/21 01:43:56;;;;;;;3.03;1.50;;;;;;;;;;683729;28;861;-70
2023/10/21 01:44:16;;;;;;;3.80;1.60;;;;;;;;;;682333;28;1918;-67
2023/10/21 01:44:36;;;;;;;2.73;1.47;;;;;;;;;;686665;28;813;-71
2023/10/21 01:44:58;;;;;;;3.10;1.50;;;;;;;;;;687464;28;836;-71
2023/10/21 01:45:18;;;;;;;2.80;1.70;;;;;;;;;;683238;28;1859;-70
2023/10/21 01:45:39;;;;;;;3.07;1.60;;;;;;;;;;684931;28;912;-70
2023/10/21 01:46:02;;;;;;;2.97;1.53;;;;;;;;;;681645;28;4839;-71
2023/10/21 01:46:22;;;;;;;2.80;1.52;;;;;;;;;;683071;28;1276;-70
2023/10/21 01:46:43;;;;;;;2.40;1.30;;;;;;;;;;684853;28;991;-71
2023/10/21 01:47:03;;;;;;;3.80;1.43;;;;;;;;;;685077;28;909;-71
2023/10/21 01:47:23;;;;;;;3.87;1.53;;;;;;;;;;680685;28;2720;-71
2023/10/21 01:47:44;;;;;;;3.53;1.40;;;;;;;;;;681980;29;1151;-69
2023/10/21 01:48:05;;;;;;;2.40;1.40;;;;;;;;;;682265;29;1250;-70
2023/10/21 01:48:25;;;;;;;3.83;1.42;;;;;;;;;;680691;28;1835;-71
2023/10/21 01:48:45;;;;;;;3.63;1.50;;;;;;;;;;681455;28;4585;-71
2023/10/21 01:49:06;;;;;;;5.17;1.57;;;;;;;;;;684787;28;861;-70
2023/10/21 01:49:26;;;;;;;3.37;1.43;;;;;;;;;;684130;28;1753;-70
2023/10/21 01:49:46;;;;;;;2.70;1.50;;;;;;;;;;686276;28;1202;-71
2023/10/21 01:50:09;;;;;;;2.90;1.40;;;;;;;;;;686331;28;817;-70
2023/10/21 01:50:30;;;;;;;2.17;1.33;;;;;;;;;;683784;28;1814;-71
2023/10/21 01:50:58;;;;;;;3.57;1.50;;;;;;;;;;685360;28;817;-68
2023/10/21 01:51:18;;;;;;;3.45;1.48;;;;;;;;;;679220;28;69441;-68
2023/10/21 01:51:39;;;;;;;3.97;1.60;;;;;;;;;;682699;28;1178;-69
2023/10/21 01:51:59;;;;;;;3.10;1.50;;;;;;;;;;684494;28;4437;-71
2023/10/21 01:52:19;;;;;;;2.20;1.50;;;;;;;;;;679427;28;1880;-70
2023/10/21 01:52:40;;;;;;;2.90;1.70;;;;;;;;;;681381;29;1013;-70
2023/10/21 01:53:00;;;;;;;3.15;1.80;;;;;;;;;;679744;29;881;-70
2023/10/21 01:53:20;;;;;;;5.13;1.90;;;;;;;;;;680091;28;1845;-71
2023/10/21 01:53:41;;;;;;;5.33;1.50;;;;;;;;;;684339;28;980;-70
2023/10/21 01:54:01;;;;;;;2.53;1.50;;;;;;;;;;685139;28;988;-69
2023/10/21 01:54:22;;;;;;;2.80;1.50;;;;;;;;;;683702;28;2394;-70
2023/10/21 01:54:43;;;;;;;2.65;1.40;;;;;;;;;;681228;29;4474;-68
2023/10/21 01:55:04;;;;;;;2.67;1.67;;;;;;;;;;682076;29;1030;-69
2023/10/21 01:55:25;;;;;;;2.67;1.60;;;;;;;;;;681040;29;2271;-69
2023/10/21 01:55:45;;;;;;;2.60;1.47;;;;;;;;;;681971;29;1039;-69
2023/10/21 01:56:06;;;;;;;2.50;1.40;;;;;;;;;;680008;29;1395;-68
2023/10/21 01:56:26;;;;;;;2.37;1.50;;;;;;;;;;680622;28;1775;-68
2023/10/21 01:56:46;;;;;;;2.57;1.53;;;;;;;;;;684186;28;1427;-68
2023/10/21 01:57:07;;;;;;;2.50;1.40;;;;;;;;;;682313;28;1300;-68
2023/10/21 01:57:28;;;;;;;2.78;1.48;;;;;;;;;;679856;29;2387;-68
2023/10/21 01:57:49;;;;;;;3.33;1.58;;;;;;;;;;678629;28;4715;-67
2023/10/21 01:58:09;;;;;;;3.70;1.70;;;;;;;;;;683259;28;1451;-68
2023/10/21 01:58:30;;;;;;;2.97;1.52;;;;;;;;;;678693;29;2206;-66
2023/10/21 01:58:51;;;;;;;3.53;1.50;;;;;;;;;;678549;29;2165;-67
2023/10/21 01:59:12;;;;;;;2.50;1.60;;;;;;;;;;679462;29;1171;-68
2023/10/21 01:59:32;;;;;;;3.40;1.40;;;;;;;;;;678227;29;1878;-67
2023/10/21 01:59:52;;;;;;;3.70;1.47;;;;;;;;;;679454;29;1436;-67
2023/10/21 02:00:18;;;;;;;3.23;1.60;;;;;;;;;;679416;29;921;-67
2023/10/21 02:00:38;;;;;;;3.03;1.55;;;;;;;;;;675139;29;70311;-67
2023/10/21 02:01:06;;;;;;;4.03;1.52;;;;;;;;;;675957;29;4618;-68
2023/10/21 02:01:27;;;;;;;2.95;1.50;;;;;;;;;;672319;29;70184;-67
2023/10/21 02:01:47;;;;;;;4.13;1.50;;;;;;;;;;678789;29;1003;-69
2023/10/21 02:02:07;;;;;;;3.13;1.60;;;;;;;;;;679470;29;818;-68
2023/10/21 02:02:28;;;;;;;2.50;1.40;;;;;;;;;;675946;29;1951;-67
2023/10/21 02:02:52;;;;;;;3.50;1.60;;;;;;;;;;681643;28;1170;-67
2023/10/21 02:03:12;;;;;;;3.13;1.60;;;;;;;;;;683431;28;25096;-67
2023/10/21 02:03:33;;;;;;;2.83;1.50;;;;;;;;;;680824;28;1741;-68
2023/10/21 02:03:53;;;;;;;3.87;1.60;;;;;;;;;;681699;29;4531;-67
2023/10/21 02:04:13;;;;;;;3.07;1.57;;;;;;;;;;681835;29;1982;-68
2023/10/21 02:04:33;;;;;;;2.50;1.50;;;;;;;;;;677314;29;3656;-67
2023/10/21 02:04:54;;;;;;;3.10;1.50;;;;;;;;;;680824;29;1391;-68
2023/10/21 02:05:14;;;;;;;3.07;1.60;;;;;;;;;;676630;29;861;-68
2023/10/21 02:05:36;;;;;;;2.07;1.40;;;;;;;;;;678190;29;2456;-67
2023/10/21 02:05:56;;;;;;;2.80;1.60;;;;;;;;;;681416;29;1069;-66
2023/10/21 02:06:16;;;;;;;3.10;1.47;;;;;;;;;;681086;29;1332;-67
2023/10/21 02:06:37;;;;;;;2.60;1.40;;;;;;;;;;680826;28;1667;-67
2023/10/21 02:06:58;;;;;;;3.70;1.40;;;;;;;;;;679202;29;4926;-67
2023/10/21 02:07:19;;;;;;;3.33;1.40;;;;;;;;;;680974;28;957;-66
2023/10/21 02:07:39;;;;;;;2.75;1.40;;;;;;;;;;682004;29;1043;-67
2023/10/21 02:07:59;;;;;;;2.63;1.40;;;;;;;;;;679799;29;1645;-67
2023/10/21 02:08:20;;;;;;;2.97;1.53;;;;;;;;;;679970;29;2363;-67
2023/10/21 02:08:40;;;;;;;4.00;1.60;;;;;;;;;;682010;28;818;-66